createdAt,value
2022-10-23T00:01:26.670Z,18.53
2022-10-23T00:03:59.356Z,18.47
2022-10-23T00:06:28.227Z,18.45
2022-10-23T00:08:56.285Z,18.51
2022-10-23T00:11:26.135Z,18.54
2022-10-23T00:13:55.647Z,18.59
2022-10-23T00:16:22.413Z,18.54
2022-10-23T00:18:49.403Z,18.47
2022-10-23T00:21:17.145Z,18.45
2022-10-23T00:23:44.036Z,18.48
2022-10-23T00:26:11.217Z,18.41
2022-10-23T00:28:38.167Z,18.38
2022-10-23T00:31:05.705Z,18.41
2022-10-23T00:33:33.237Z,18.41
2022-10-23T00:36:00.133Z,18.40
2022-10-23T00:38:26.791Z,18.44
2022-10-23T00:40:53.271Z,18.41
2022-10-23T00:43:23.557Z,18.40
2022-10-23T00:45:50.217Z,18.38
2022-10-23T00:48:17.871Z,18.36
2022-10-23T00:50:46.776Z,18.37
2022-10-23T00:53:15.499Z,18.39
2022-10-23T00:55:45.120Z,18.37
2022-10-23T00:58:11.657Z,18.37
2022-10-23T01:00:47.163Z,18.30
2022-10-23T01:03:17.503Z,18.21
2022-10-23T01:06:12.595Z,18.24
2022-10-23T01:09:04.618Z,18.28
2022-10-23T01:11:35.494Z,18.24
2022-10-23T01:14:29.510Z,18.19
2022-10-23T01:17:33.638Z,18.18
2022-10-23T01:20:27.499Z,18.13
2022-10-23T01:23:14.810Z,18.15
2022-10-23T01:26:01.794Z,18.19
2022-10-23T01:28:39.687Z,18.15
2022-10-23T01:31:16.271Z,18.15
2022-10-23T01:33:57.626Z,18.08
2022-10-23T01:36:30.261Z,18.10
2022-10-23T01:41:52.987Z,18.01
2022-10-23T01:44:31.907Z,18.03
2022-10-23T01:46:58.624Z,18.05
2022-10-23T01:49:25.308Z,18.10
2022-10-23T01:52:00.227Z,18.05
2022-10-23T01:54:31.839Z,18.00
2022-10-23T01:57:00.142Z,17.97
2022-10-23T01:59:35.179Z,17.96
2022-10-23T02:02:04.444Z,17.94
2022-10-23T02:04:36.378Z,17.94
2022-10-23T02:07:03.223Z,17.92
2022-10-23T02:09:30.863Z,17.89
2022-10-23T02:12:08.834Z,17.79
2022-10-23T02:15:19.979Z,17.85
2022-10-23T02:18:02.752Z,17.82
2022-10-23T02:20:35.468Z,17.79
2022-10-23T02:23:11.041Z,17.77
2022-10-23T02:25:51.551Z,17.74
2022-10-23T02:28:27.037Z,17.75
2022-10-23T02:30:57.240Z,17.69
2022-10-23T02:33:27.956Z,17.74
2022-10-23T02:35:54.741Z,17.72
2022-10-23T02:38:30.148Z,17.67
2022-10-23T02:41:16.853Z,17.62
2022-10-23T02:44:05.133Z,17.61
2022-10-23T02:47:07.749Z,17.59
2022-10-23T02:50:00.543Z,17.63
2022-10-23T02:52:47.439Z,17.59
2022-10-23T02:55:39.800Z,17.57
2022-10-23T02:58:13.129Z,17.51
2022-10-23T03:00:49.115Z,17.46
2022-10-23T03:03:24.593Z,17.53
2022-10-23T03:05:51.383Z,17.53
2022-10-23T03:08:17.939Z,17.41
2022-10-23T03:10:44.465Z,17.51
2022-10-23T03:13:11.631Z,17.40
2022-10-23T03:15:38.210Z,17.36
2022-10-23T03:18:05.092Z,17.43
2022-10-23T03:20:31.711Z,17.37
2022-10-23T03:22:58.195Z,17.46
2022-10-23T03:25:24.680Z,17.45
2022-10-23T03:27:51.227Z,17.45
2022-10-23T03:30:17.799Z,17.31
2022-10-23T03:32:44.688Z,17.19
2022-10-23T03:35:11.372Z,17.21
2022-10-23T03:37:37.812Z,17.21
2022-10-23T03:40:04.872Z,17.22
2022-10-23T03:42:31.483Z,17.18
2022-10-23T03:44:57.998Z,17.20
2022-10-23T03:47:24.595Z,17.18
2022-10-23T03:49:51.131Z,17.12
2022-10-23T03:52:17.674Z,17.09
2022-10-23T03:54:44.236Z,17.17
2022-10-23T03:57:10.903Z,17.19
2022-10-23T03:59:37.593Z,17.16
2022-10-23T04:02:04.395Z,17.17
2022-10-23T04:04:30.961Z,17.13
2022-10-23T04:06:57.424Z,17.00
2022-10-23T04:09:24.125Z,17.04
2022-10-23T04:11:50.848Z,17.08
2022-10-23T04:14:37.445Z,17.06
2022-10-23T04:17:06.224Z,17.03
2022-10-23T04:19:32.776Z,16.97
2022-10-23T04:21:59.267Z,16.99
2022-10-23T04:24:26.813Z,17.09
2022-10-23T04:26:53.567Z,17.09
2022-10-23T04:29:20.179Z,17.06
2022-10-23T04:31:46.937Z,16.99
2022-10-23T04:34:13.540Z,17.07
2022-10-23T04:36:40.105Z,17.02
2022-10-23T04:39:06.626Z,17.01
2022-10-23T04:41:33.129Z,16.95
2022-10-23T04:43:59.689Z,16.90
2022-10-23T04:46:26.257Z,16.84
2022-10-23T04:48:52.825Z,16.86
2022-10-23T04:51:19.459Z,16.85
2022-10-23T04:53:46.056Z,16.81
2022-10-23T04:56:16.022Z,16.83
2022-10-23T04:58:42.691Z,16.69
2022-10-23T05:01:10.206Z,16.78
2022-10-23T05:03:38.198Z,16.78
2022-10-23T05:06:05.491Z,16.84
2022-10-23T05:08:32.709Z,16.85
2022-10-23T05:10:59.291Z,16.86
2022-10-23T05:13:25.854Z,16.81
2022-10-23T05:15:53.524Z,16.84
2022-10-23T05:18:27.798Z,16.75
2022-10-23T05:21:02.341Z,16.85
2022-10-23T05:23:33.787Z,16.83
2022-10-23T05:26:00.489Z,16.86
2022-10-23T05:28:27.131Z,16.84
2022-10-23T05:30:53.860Z,16.77
2022-10-23T05:33:20.444Z,16.80
2022-10-23T05:35:47.203Z,16.78
2022-10-23T05:38:15.873Z,16.87
2022-10-23T05:40:42.675Z,16.93
2022-10-23T05:43:09.603Z,16.92
2022-10-23T05:45:36.324Z,16.87
2022-10-23T05:48:11.110Z,16.84
2022-10-23T05:50:49.103Z,16.90
2022-10-23T05:53:15.922Z,16.86
2022-10-23T05:55:42.561Z,16.86
2022-10-23T05:58:09.294Z,16.87
2022-10-23T06:00:36.016Z,16.80
2022-10-23T06:03:02.908Z,16.78
2022-10-23T06:05:29.719Z,16.71
2022-10-23T06:08:00.102Z,16.78
2022-10-23T06:10:27.675Z,16.85
2022-10-23T06:12:54.605Z,16.82
2022-10-23T06:15:21.269Z,16.75
2022-10-23T06:17:47.947Z,16.83
2022-10-23T06:20:14.780Z,16.78
2022-10-23T06:22:41.738Z,16.68
2022-10-23T06:25:09.157Z,16.55
2022-10-23T06:27:35.666Z,16.62
2022-10-23T06:30:02.239Z,16.67
2022-10-23T06:32:32.257Z,16.66
2022-10-23T06:34:58.861Z,16.70
2022-10-23T06:37:25.892Z,16.79
2022-10-23T06:39:52.712Z,16.92
2022-10-23T06:42:19.369Z,16.86
2022-10-23T06:44:46.016Z,17.03
2022-10-23T06:47:12.734Z,16.99
2022-10-23T06:49:39.458Z,17.11
2022-10-23T06:52:11.055Z,17.10
2022-10-23T06:54:44.984Z,17.18
2022-10-23T06:57:11.491Z,17.18
2022-10-23T06:59:37.985Z,17.27
2022-10-23T07:02:04.501Z,17.29
2022-10-23T07:04:31.109Z,17.39
2022-10-23T07:06:57.588Z,17.49
2022-10-23T07:09:24.533Z,17.53
2022-10-23T07:11:51.102Z,17.61
2022-10-23T07:14:17.634Z,17.64
2022-10-23T07:16:44.144Z,17.75
2022-10-23T07:19:10.739Z,17.81
2022-10-23T07:21:37.197Z,17.88
2022-10-23T07:24:04.405Z,17.98
2022-10-23T07:26:31.332Z,18.09
2022-10-23T07:28:57.958Z,18.17
2022-10-23T07:31:28.162Z,18.23
2022-10-23T07:33:55.246Z,18.32
2022-10-23T07:36:21.875Z,18.43
2022-10-23T07:38:48.520Z,18.49
2022-10-23T07:41:15.215Z,18.45
2022-10-23T07:43:41.817Z,18.28
2022-10-23T07:46:08.731Z,18.47
2022-10-23T07:48:36.450Z,18.61
2022-10-23T07:51:06.538Z,18.69
2022-10-23T07:53:33.160Z,18.82
2022-10-23T07:56:02.499Z,18.93
2022-10-23T07:58:30.427Z,19.03
2022-10-23T08:01:00.468Z,19.15
2022-10-23T08:03:30.043Z,19.23
2022-10-23T08:05:56.815Z,19.28
2022-10-23T08:08:24.398Z,19.31
2022-10-23T08:10:53.578Z,19.40
2022-10-23T08:13:21.113Z,19.36
2022-10-23T08:15:50.295Z,19.50
2022-10-23T08:18:16.939Z,19.52
2022-10-23T08:20:46.133Z,19.59
2022-10-23T08:23:15.907Z,19.65
2022-10-23T08:25:42.644Z,19.78
2022-10-23T08:28:09.390Z,19.94
2022-10-23T08:30:37.273Z,19.88
2022-10-23T08:33:07.611Z,20.01
2022-10-23T08:35:38.025Z,20.09
2022-10-23T08:38:05.131Z,20.15
2022-10-23T08:40:31.900Z,20.19
2022-10-23T08:43:12.366Z,20.25
2022-10-23T08:45:53.615Z,20.20
2022-10-23T08:48:43.630Z,20.32
2022-10-23T08:51:25.245Z,20.31
2022-10-23T08:54:06.420Z,20.41
2022-10-23T08:56:41.237Z,20.45
2022-10-23T08:59:59.034Z,20.29
2022-10-23T09:02:25.592Z,20.57
2022-10-23T09:04:55.623Z,20.66
2022-10-23T09:07:50.929Z,20.66
2022-10-23T09:10:51.705Z,20.71
2022-10-23T09:13:40.278Z,20.57
2022-10-23T09:16:41.787Z,20.70
2022-10-23T09:19:22.096Z,20.84
2022-10-23T09:21:50.130Z,20.84
2022-10-23T09:24:19.931Z,20.82
2022-10-23T09:26:48.682Z,20.88
2022-10-23T09:32:05.425Z,21.00
2022-10-23T09:34:34.853Z,21.25
2022-10-23T09:37:27.737Z,21.33
2022-10-23T09:40:15.031Z,21.31
2022-10-23T09:42:55.402Z,21.12
2022-10-23T09:45:24.065Z,21.38
2022-10-23T09:47:50.487Z,21.30
2022-10-23T09:50:20.434Z,21.22
2022-10-23T09:52:54.489Z,21.05
2022-10-23T09:55:25.013Z,21.09
2022-10-23T09:57:53.881Z,21.13
2022-10-23T10:00:25.915Z,21.20
2022-10-23T10:02:57.994Z,21.13
2022-10-23T10:05:35.065Z,21.04
2022-10-23T10:08:13.393Z,20.71
2022-10-23T10:10:49.990Z,20.99
2022-10-23T10:13:34.748Z,20.95
2022-10-23T10:16:31.230Z,21.07
2022-10-23T10:19:14.317Z,20.76
2022-10-23T10:21:51.813Z,20.71
2022-10-23T10:24:23.070Z,20.65
2022-10-23T10:27:08.190Z,20.70
2022-10-23T10:30:10.717Z,20.81
2022-10-23T10:32:58.712Z,20.92
2022-10-23T10:35:42.772Z,20.84
2022-10-23T10:38:43.426Z,20.81
2022-10-23T10:41:38.622Z,21.04
2022-10-23T10:44:23.131Z,20.88
2022-10-23T10:47:05.430Z,21.14
2022-10-23T10:49:40.159Z,21.24
2022-10-23T10:52:31.459Z,21.43
2022-10-23T10:55:13.382Z,21.31
2022-10-23T10:57:45.248Z,21.33
2022-10-23T11:00:21.250Z,21.15
2022-10-23T11:03:05.916Z,21.02
2022-10-23T11:05:38.390Z,20.93
2022-10-23T11:08:44.396Z,21.15
2022-10-23T11:11:37.672Z,21.26
2022-10-23T11:14:04.435Z,21.40
2022-10-23T11:16:37.782Z,21.19
2022-10-23T11:19:18.618Z,21.31
2022-10-23T11:21:54.036Z,21.40
2022-10-23T11:25:02.171Z,21.22
2022-10-23T11:27:53.131Z,21.34
2022-10-23T11:30:29.877Z,21.35
2022-10-23T11:33:24.006Z,21.24
2022-10-23T11:36:19.861Z,21.25
2022-10-23T11:38:50.407Z,21.24
2022-10-23T11:41:29.294Z,21.30
2022-10-23T11:44:01.203Z,20.74
2022-10-23T11:46:33.943Z,20.87
2022-10-23T11:49:00.633Z,21.08
2022-10-23T11:51:37.270Z,21.18
2022-10-23T11:54:12.683Z,21.21
2022-10-23T11:57:10.738Z,21.25
2022-10-23T11:59:49.589Z,21.26
2022-10-23T12:02:36.281Z,21.06
2022-10-23T12:05:26.718Z,20.65
2022-10-23T12:07:57.976Z,20.87
2022-10-23T12:10:33.789Z,20.69
2022-10-23T12:13:04.018Z,20.57
2022-10-23T12:15:32.883Z,20.87
2022-10-23T12:18:14.927Z,20.93
2022-10-23T12:21:01.970Z,20.81
2022-10-23T12:24:03.828Z,20.84
2022-10-23T12:26:33.111Z,20.66
2022-10-23T12:29:21.319Z,20.72
2022-10-23T12:32:05.821Z,21.07
2022-10-23T12:34:48.505Z,21.27
2022-10-23T12:37:47.068Z,21.15
2022-10-23T12:40:13.577Z,21.37
2022-10-23T12:42:41.228Z,21.49
2022-10-23T12:45:10.541Z,21.61
2022-10-23T12:50:17.857Z,21.57
2022-10-23T12:52:59.744Z,21.52
2022-10-23T12:55:32.181Z,21.54
2022-10-23T12:58:01.567Z,21.54
2022-10-23T13:00:28.065Z,21.29
2022-10-23T13:03:04.063Z,21.19
2022-10-23T13:05:32.434Z,21.31
2022-10-23T13:08:02.375Z,21.13
2022-10-23T13:10:30.385Z,21.25
2022-10-23T13:13:03.075Z,20.85
2022-10-23T13:15:45.275Z,21.14
2022-10-23T13:18:14.176Z,21.18
2022-10-23T13:20:57.187Z,21.28
2022-10-23T13:23:31.099Z,21.23
2022-10-23T13:26:25.685Z,21.30
2022-10-23T13:28:52.674Z,21.33
2022-10-23T13:31:33.554Z,21.09
2022-10-23T13:33:59.966Z,21.16
2022-10-23T13:36:34.872Z,21.29
2022-10-23T13:39:10.369Z,21.17
2022-10-23T13:41:40.831Z,21.23
2022-10-23T13:44:11.655Z,20.53
2022-10-23T13:46:38.103Z,20.18
2022-10-23T13:49:04.604Z,20.39
2022-10-23T13:51:41.747Z,20.61
2022-10-23T13:54:19.684Z,20.65
2022-10-23T13:56:46.792Z,20.72
2022-10-23T13:59:14.835Z,20.86
2022-10-23T14:01:42.590Z,20.80
2022-10-23T14:04:09.934Z,21.05
2022-10-23T14:06:37.202Z,21.24
2022-10-23T14:09:05.882Z,21.34
2022-10-23T14:11:34.548Z,21.34
2022-10-23T14:14:01.064Z,21.47
2022-10-23T14:16:28.365Z,21.34
2022-10-23T14:18:55.663Z,21.55
2022-10-23T14:21:24.199Z,21.58
2022-10-23T14:23:52.680Z,21.52
2022-10-23T14:26:24.881Z,21.26
2022-10-23T14:28:55.597Z,21.01
2022-10-23T14:31:22.807Z,21.29
2022-10-23T14:33:55.338Z,21.41
2022-10-23T14:36:22.915Z,21.53
2022-10-23T14:38:53.542Z,21.49
2022-10-23T14:41:22.228Z,21.08
2022-10-23T14:43:48.747Z,21.27
2022-10-23T14:46:18.346Z,21.08
2022-10-23T14:48:46.314Z,21.12
2022-10-23T14:51:20.267Z,21.13
2022-10-23T14:53:47.064Z,21.15
2022-10-23T14:56:14.639Z,21.11
2022-10-23T14:58:41.205Z,20.96
2022-10-23T15:01:08.024Z,21.12
2022-10-23T15:03:34.586Z,21.08
2022-10-23T15:06:01.117Z,20.91
2022-10-23T15:08:27.629Z,20.68
2022-10-23T15:10:54.178Z,20.80
2022-10-23T15:13:20.657Z,20.69
2022-10-23T15:15:47.469Z,20.79
2022-10-23T15:18:13.915Z,20.80
2022-10-23T15:20:41.579Z,20.85
2022-10-23T15:23:08.141Z,20.49
2022-10-23T15:25:34.679Z,20.83
2022-10-23T15:28:01.218Z,21.04
2022-10-23T15:30:27.779Z,21.18
2022-10-23T15:32:54.495Z,21.29
2022-10-23T15:35:21.104Z,21.38
2022-10-23T15:37:47.649Z,21.38
2022-10-23T15:40:14.150Z,21.24
2022-10-23T15:42:41.399Z,21.31
2022-10-23T15:45:09.711Z,21.44
2022-10-23T15:47:36.378Z,21.49
2022-10-23T15:50:03.731Z,21.47
2022-10-23T15:52:30.274Z,21.55
2022-10-23T15:54:56.843Z,21.08
2022-10-23T15:57:23.403Z,21.03
2022-10-23T15:59:49.896Z,21.27
2022-10-23T16:02:16.676Z,21.34
2022-10-23T16:04:43.215Z,21.39
2022-10-23T16:07:09.709Z,20.97
2022-10-23T16:09:36.233Z,21.21
2022-10-23T16:12:02.703Z,21.32
2022-10-23T16:14:29.190Z,21.36
2022-10-23T16:16:55.635Z,21.30
2022-10-23T16:19:22.153Z,20.87
2022-10-23T16:21:48.664Z,21.02
2022-10-23T16:24:15.267Z,21.14
2022-10-23T16:26:41.770Z,21.16
2022-10-23T16:29:09.036Z,20.94
2022-10-23T16:31:35.643Z,21.00
2022-10-23T16:34:04.469Z,20.82
2022-10-23T16:36:30.996Z,20.65
2022-10-23T16:38:57.476Z,20.79
2022-10-23T16:41:24.038Z,20.74
2022-10-23T16:43:50.507Z,20.92
2022-10-23T16:46:20.258Z,20.78
2022-10-23T16:48:47.721Z,20.65
2022-10-23T16:51:17.045Z,20.58
2022-10-23T16:53:44.713Z,20.27
2022-10-23T16:56:13.360Z,20.47
2022-10-23T16:58:39.845Z,20.45
2022-10-23T17:01:12.333Z,20.48
2022-10-23T17:03:42.873Z,20.59
2022-10-23T17:06:12.925Z,20.92
2022-10-23T17:08:40.207Z,20.69
2022-10-23T17:11:16.186Z,20.88
2022-10-23T17:13:59.138Z,21.13
2022-10-23T17:16:32.828Z,21.18
2022-10-23T17:18:59.455Z,20.99
2022-10-23T17:21:26.200Z,21.11
2022-10-23T17:23:52.818Z,20.69
2022-10-23T17:26:21.766Z,20.88
2022-10-23T17:28:48.323Z,20.44
2022-10-23T17:31:19.510Z,20.61
2022-10-23T17:33:48.161Z,20.22
2022-10-23T17:36:15.844Z,20.72
2022-10-23T17:38:43.595Z,20.62
2022-10-23T17:41:12.569Z,20.51
2022-10-23T17:43:39.549Z,19.95
2022-10-23T17:46:08.140Z,20.09
2022-10-23T17:48:35.787Z,19.77
2022-10-23T17:51:13.251Z,20.10
2022-10-23T17:53:43.162Z,19.99
2022-10-23T17:56:14.320Z,19.39
2022-10-23T17:58:40.794Z,19.76
2022-10-23T18:01:10.477Z,20.13
2022-10-23T18:03:38.326Z,19.95
2022-10-23T18:06:10.408Z,20.21
2022-10-23T18:08:38.242Z,20.28
2022-10-23T18:11:05.769Z,20.44
2022-10-23T18:13:34.756Z,20.21
2022-10-23T18:16:04.406Z,20.17
2022-10-23T18:18:31.187Z,19.78
2022-10-23T18:20:59.182Z,20.09
2022-10-23T18:23:27.504Z,20.21
2022-10-23T18:25:54.663Z,20.47
2022-10-23T18:28:21.178Z,20.62
2022-10-23T18:30:48.425Z,20.52
2022-10-23T18:33:15.972Z,20.45
2022-10-23T18:35:42.925Z,20.26
2022-10-23T18:38:09.916Z,20.55
2022-10-23T18:40:38.147Z,20.62
2022-10-23T18:43:11.607Z,20.58
2022-10-23T18:45:42.156Z,20.51
2022-10-23T18:48:10.061Z,20.28
2022-10-23T18:50:37.789Z,19.95
2022-10-23T18:53:04.792Z,20.03
2022-10-23T18:55:31.332Z,20.15
2022-10-23T18:57:57.826Z,20.21
2022-10-23T19:00:24.753Z,19.89
2022-10-23T19:02:52.444Z,19.52
2022-10-23T19:05:19.678Z,19.87
2022-10-23T19:07:48.558Z,19.95
2022-10-23T19:10:16.287Z,20.05
2022-10-23T19:12:43.151Z,20.25
2022-10-23T19:15:10.398Z,19.86
2022-10-23T19:17:37.443Z,19.96
2022-10-23T19:20:13.900Z,19.94
2022-10-23T19:22:46.501Z,20.01
2022-10-23T19:25:21.356Z,19.81
2022-10-23T19:27:48.772Z,19.87
2022-10-23T19:30:20.546Z,20.19
2022-10-23T19:32:51.137Z,20.23
2022-10-23T19:35:21.087Z,20.24
2022-10-23T19:37:48.125Z,19.85
2022-10-23T19:40:15.906Z,20.12
2022-10-23T19:42:43.207Z,20.31
2022-10-23T19:45:12.757Z,20.40
2022-10-23T19:47:40.061Z,20.17
2022-10-23T19:50:08.273Z,19.79
2022-10-23T19:52:35.538Z,19.46
2022-10-23T19:55:02.168Z,19.43
2022-10-23T19:57:29.207Z,19.03
2022-10-23T19:59:56.047Z,19.03
2022-10-23T20:02:22.737Z,19.16
2022-10-23T20:04:49.320Z,19.38
2022-10-23T20:07:16.030Z,19.43
2022-10-23T20:09:42.530Z,19.90
2022-10-23T20:12:09.021Z,19.70
2022-10-23T20:14:35.607Z,19.75
2022-10-23T20:17:02.149Z,19.74
2022-10-23T20:19:29.023Z,20.06
2022-10-23T20:21:55.624Z,20.24
2022-10-23T20:24:22.106Z,20.17
2022-10-23T20:26:52.789Z,20.25
2022-10-23T20:29:20.470Z,20.02
2022-10-23T20:31:47.616Z,20.34
2022-10-23T20:34:14.216Z,20.23
2022-10-23T20:36:46.390Z,20.39
2022-10-23T20:39:22.616Z,20.09
2022-10-23T20:41:49.102Z,20.10
2022-10-23T20:46:49.769Z,19.90
2022-10-23T20:49:17.270Z,20.24
2022-10-23T20:51:44.482Z,20.29
2022-10-23T20:54:11.596Z,20.32
2022-10-23T20:56:39.229Z,20.36
2022-10-23T20:59:13.117Z,18.96
2022-10-23T21:01:42.467Z,18.23
2022-10-23T21:04:13.225Z,18.64
2022-10-23T21:06:57.432Z,19.13
2022-10-23T21:09:30.267Z,18.93
2022-10-23T21:11:57.577Z,18.82
2022-10-23T21:14:27.451Z,19.28
2022-10-23T21:17:24.130Z,19.45
2022-10-23T21:19:51.434Z,18.73
2022-10-23T21:22:19.486Z,18.51
2022-10-23T21:24:46.298Z,18.86
2022-10-23T21:27:13.223Z,18.48
2022-10-23T21:29:40.070Z,18.19
2022-10-23T21:32:06.717Z,18.42
2022-10-23T21:34:33.598Z,18.17
2022-10-23T21:37:15.546Z,17.95
2022-10-23T21:39:44.383Z,17.71
2022-10-23T21:42:12.852Z,17.83
2022-10-23T21:44:40.017Z,17.78
2022-10-23T21:47:07.016Z,18.04
2022-10-23T21:49:33.758Z,18.25
2022-10-23T21:52:00.508Z,17.78
2022-10-23T21:54:27.172Z,18.08
2022-10-23T21:56:54.126Z,18.61
2022-10-23T21:59:24.409Z,18.82
2022-10-23T22:01:51.969Z,18.95
2022-10-23T22:04:20.633Z,19.00
2022-10-23T22:06:49.076Z,19.49
2022-10-23T22:09:18.546Z,19.81
2022-10-23T22:11:45.278Z,19.71
2022-10-23T22:14:12.178Z,20.10
2022-10-23T22:16:39.033Z,20.09
2022-10-23T22:19:05.734Z,20.19
2022-10-23T22:21:32.340Z,19.69
2022-10-23T22:24:00.657Z,19.35
2022-10-23T22:26:34.242Z,19.51
2022-10-23T22:29:04.848Z,19.29
2022-10-23T22:31:34.088Z,19.29
2022-10-23T22:34:13.113Z,19.24
2022-10-23T22:36:48.767Z,18.95
2022-10-23T22:39:15.391Z,18.91
2022-10-23T22:41:41.944Z,18.93
2022-10-23T22:44:11.610Z,18.66
2022-10-23T22:46:38.542Z,18.38
2022-10-23T22:51:33.682Z,17.93
2022-10-23T22:54:00.537Z,17.82
2022-10-23T22:56:29.783Z,17.77
2022-10-23T22:58:57.309Z,18.13
2022-10-23T23:01:31.293Z,18.25
2022-10-23T23:04:04.489Z,18.17
2022-10-23T23:06:45.509Z,18.24
2022-10-23T23:09:14.195Z,18.36
2022-10-23T23:11:51.416Z,18.55
2022-10-23T23:14:22.131Z,18.53
2022-10-23T23:16:50.788Z,18.20
2022-10-23T23:19:17.458Z,18.44
2022-10-23T23:21:43.999Z,18.49
2022-10-23T23:24:11.827Z,18.03
2022-10-23T23:26:41.169Z,18.30
2022-10-23T23:29:07.971Z,18.22
2022-10-23T23:31:34.631Z,18.20
2022-10-23T23:34:01.344Z,18.26
2022-10-23T23:36:28.412Z,18.30
2022-10-23T23:38:57.586Z,18.12
2022-10-23T23:41:25.848Z,18.09
2022-10-23T23:43:55.457Z,17.93
2022-10-23T23:46:22.602Z,18.49
2022-10-23T23:48:49.926Z,18.16
2022-10-23T23:51:21.930Z,18.18
2022-10-23T23:53:50.512Z,18.12
2022-10-23T23:56:19.092Z,18.05
2022-10-23T23:58:46.858Z,18.39
